DAUH

Hassi Messaoud/Oued Irara - Krim Belkacem Airport

Airport
ICAO code
DAUH
IATA Code
HME
Summary
ICAO Region
AFI
ICAO Territory
Location

Hassi Messaoud, Ouargla

Serving
Hassi Messaoud
Elevation
459 ft
Coordinates
31° 40' 31" N , 6° 8' 44" E
Metar
DAUH 271000Z 35011KT 310V010 2000 SA NSC 17/01 Q1008

Description

Oued Irara - Krim Belkacem Airport is an airport serving Hassi Messaoud, a city in the Ouargla Province of eastern Algeria. It is located 5 nm southeast of the city.

Runways

Designator Length Width Surface Rops
1/19 0 0 UNK Yes/Yes
18/36 3000 45 ASP Yes/Yes

Airport map

Aerial View

SKYbrary Partners:

Safety knowledge contributed by: